Time;durP1;ratioP1;P1;durP2;ratioP2;P2;SDS_P1;SDS_P2;PMS_P1;PMS_P2;Temp;Humidity;BMP_temperature;BMP_pressure;BME280_temperature;BME280_humidity;BME280_pressure;Samples;Min_cycle;Max_cycle;Signal;HPM_P1;HPM_P2
2021/11/23 00:02:01;;;;;;;21.03;11.03;;;;;;;;;;4993192;28;20674;-50
2021/11/23 00:04:27;;;;;;;22.97;12.33;;;;;;;;;;4993020;28;20805;-49
2021/11/23 00:06:53;;;;;;;17.35;10.85;;;;;;;;;;4993006;28;20404;-48
2021/11/23 00:09:19;;;;;;;23.50;13.37;;;;;;;;;;4992657;28;20197;-49
2021/11/23 00:11:44;;;;;;;33.43;17.47;;;;;;;;;;4993210;28;20412;-49
2021/11/23 00:14:10;;;;;;;49.60;19.47;;;;;;;;;;4992896;28;20823;-49
2021/11/23 00:16:36;;;;;;;34.90;14.80;;;;;;;;;;4993147;28;20408;-49
2021/11/23 00:19:02;;;;;;;32.80;16.30;;;;;;;;;;4992485;28;20456;-49
2021/11/23 00:21:28;;;;;;;21.88;12.82;;;;;;;;;;4992746;28;20431;-49
2021/11/23 00:23:54;;;;;;;28.17;13.40;;;;;;;;;;4993218;28;20165;-48
2021/11/23 00:26:22;;;;;;;18.80;11.70;;;;;;;;;;4992696;28;20440;-49
2021/11/23 00:28:48;;;;;;;17.00;11.43;;;;;;;;;;4992416;28;20920;-49
2021/11/23 00:31:17;;;;;;;20.83;11.30;;;;;;;;;;4992669;28;20161;-49
2021/11/23 00:33:43;;;;;;;15.15;10.00;;;;;;;;;;4991946;28;20400;-49
2021/11/23 00:36:11;;;;;;;14.47;9.77;;;;;;;;;;4992658;28;20165;-49
2021/11/23 00:38:41;;;;;;;14.38;10.80;;;;;;;;;;4992693;28;20915;-49
2021/11/23 00:41:08;;;;;;;17.17;11.48;;;;;;;;;;4992620;28;20517;-49
2021/11/23 00:43:33;;;;;;;20.15;12.80;;;;;;;;;;4992483;28;20165;-48
2021/11/23 00:45:59;;;;;;;13.47;11.33;;;;;;;;;;4992472;28;20530;-49
2021/11/23 00:48:25;;;;;;;17.60;11.77;;;;;;;;;;4992251;28;20400;-49
2021/11/23 00:50:51;;;;;;;21.63;12.33;;;;;;;;;;4992452;28;20400;-49
2021/11/23 00:53:19;;;;;;;16.65;10.63;;;;;;;;;;4992380;28;20404;-49
2021/11/23 00:55:45;;;;;;;18.77;11.90;;;;;;;;;;4992458;28;20204;-49
2021/11/23 00:58:11;;;;;;;17.08;11.68;;;;;;;;;;4993103;28;20175;-49
2021/11/23 01:00:37;;;;;;;26.23;13.52;;;;;;;;;;4992015;28;20197;-49
2021/11/23 01:03:04;;;;;;;15.93;11.10;;;;;;;;;;4992305;28;20169;-49
2021/11/23 01:05:30;;;;;;;16.52;10.02;;;;;;;;;;4992289;28;20397;-48
2021/11/23 01:07:56;;;;;;;26.33;12.33;;;;;;;;;;4992273;28;20630;-49
2021/11/23 01:10:22;;;;;;;17.48;11.02;;;;;;;;;;4991986;28;20467;-49
2021/11/23 01:12:48;;;;;;;21.00;11.93;;;;;;;;;;4992266;28;20165;-49
2021/11/23 01:15:15;;;;;;;20.88;11.95;;;;;;;;;;4992145;28;20248;-49
2021/11/23 01:17:42;;;;;;;17.98;10.90;;;;;;;;;;4992187;28;20185;-50
2021/11/23 01:20:10;;;;;;;17.58;11.20;;;;;;;;;;4991818;28;20242;-50
2021/11/23 01:22:36;;;;;;;13.68;10.50;;;;;;;;;;4992101;28;20611;-49
2021/11/23 01:25:02;;;;;;;17.05;11.05;;;;;;;;;;4992116;28;20249;-50
2021/11/23 01:30:39;;;;;;;15.90;10.40;;;;;;;;;;4992051;28;20236;-48
2021/11/23 01:33:05;;;;;;;13.52;9.85;;;;;;;;;;4991922;28;20256;-48
2021/11/23 01:35:31;;;;;;;13.17;9.70;;;;;;;;;;4992191;28;20555;-49
2021/11/23 01:37:57;;;;;;;19.27;11.40;;;;;;;;;;4992119;28;20396;-50
2021/11/23 01:40:23;;;;;;;17.40;10.57;;;;;;;;;;4991719;28;20490;-48
2021/11/23 01:42:49;;;;;;;20.77;12.63;;;;;;;;;;4991963;28;20596;-49
2021/11/23 01:45:15;;;;;;;20.08;12.50;;;;;;;;;;4993180;28;20447;-49
2021/11/23 01:47:42;;;;;;;18.20;11.10;;;;;;;;;;4995650;28;20273;-48
2021/11/23 01:50:09;;;;;;;17.88;12.25;;;;;;;;;;4995525;28;20239;-49
2021/11/23 01:52:35;;;;;;;17.10;11.10;;;;;;;;;;4995611;28;20304;-49
2021/11/23 01:55:02;;;;;;;18.83;11.65;;;;;;;;;;4995686;28;20178;-49
2021/11/23 01:57:28;;;;;;;18.02;11.85;;;;;;;;;;4995547;28;20537;-50
2021/11/23 01:59:54;;;;;;;18.10;11.70;;;;;;;;;;4995054;28;20657;-49
2021/11/23 02:02:20;;;;;;;16.27;11.73;;;;;;;;;;4994861;28;20180;-49
2021/11/23 02:04:46;;;;;;;17.10;10.70;;;;;;;;;;4994503;28;20400;-49
2021/11/23 02:07:17;;;;;;;16.27;11.40;;;;;;;;;;4995237;28;20411;-50
2021/11/23 02:09:43;;;;;;;16.13;10.68;;;;;;;;;;4994985;28;20773;-49
2021/11/23 02:12:09;;;;;;;22.27;12.98;;;;;;;;;;4995175;28;20176;-49
2021/11/23 02:14:36;;;;;;;16.50;11.40;;;;;;;;;;4995140;28;20497;-49
2021/11/23 02:17:02;;;;;;;15.10;11.80;;;;;;;;;;4995033;28;20412;-50
2021/11/23 02:19:28;;;;;;;19.05;11.82;;;;;;;;;;4994774;28;20381;-49
2021/11/23 02:21:54;;;;;;;21.50;10.57;;;;;;;;;;4994943;28;20559;-49
2021/11/23 02:24:20;;;;;;;19.10;12.33;;;;;;;;;;4994899;28;20428;-48
2021/11/23 02:26:46;;;;;;;14.73;10.27;;;;;;;;;;4994899;28;20450;-49
2021/11/23 02:29:12;;;;;;;13.20;10.63;;;;;;;;;;4994520;28;20432;-49
2021/11/23 02:31:38;;;;;;;18.08;12.68;;;;;;;;;;4994774;28;20412;-48
2021/11/23 02:34:04;;;;;;;21.02;11.82;;;;;;;;;;4994829;28;20645;-49
2021/11/23 02:36:30;;;;;;;18.40;11.85;;;;;;;;;;4994751;28;20176;-50
2021/11/23 02:38:56;;;;;;;16.27;11.70;;;;;;;;;;4994846;28;20200;-50
2021/11/23 02:41:22;;;;;;;19.90;12.60;;;;;;;;;;4994614;28;20173;-49
2021/11/23 02:43:48;;;;;;;20.02;11.90;;;;;;;;;;4994522;28;20400;-48
2021/11/23 02:46:14;;;;;;;18.63;11.50;;;;;;;;;;4994493;28;20180;-49
2021/11/23 02:48:42;;;;;;;20.02;12.73;;;;;;;;;;4994249;28;20411;-48
2021/11/23 02:51:15;;;;;;;18.52;12.38;;;;;;;;;;4994393;28;20544;-48
2021/11/23 02:53:41;;;;;;;17.58;10.93;;;;;;;;;;4994386;28;20564;-49
2021/11/23 02:56:07;;;;;;;22.65;11.77;;;;;;;;;;4994070;28;20173;-49
2021/11/23 02:58:34;;;;;;;19.13;12.38;;;;;;;;;;4993613;28;20191;-49
2021/11/23 03:01:00;;;;;;;23.58;12.95;;;;;;;;;;4994262;28;20252;-48
2021/11/23 03:03:26;;;;;;;20.83;12.63;;;;;;;;;;4994404;28;20180;-49
2021/11/23 03:05:56;;;;;;;23.48;12.07;;;;;;;;;;4994253;28;20249;-49
2021/11/23 03:08:22;;;;;;;17.60;11.02;;;;;;;;;;4994136;28;20168;-48
2021/11/23 03:10:48;;;;;;;20.00;12.55;;;;;;;;;;4994026;28;20193;-49
2021/11/23 03:13:15;;;;;;;18.08;12.05;;;;;;;;;;4993944;28;20258;-50
2021/11/23 03:15:41;;;;;;;18.25;11.15;;;;;;;;;;4994195;28;20173;-49
2021/11/23 03:18:09;;;;;;;19.50;10.77;;;;;;;;;;4994131;28;20565;-50
2021/11/23 03:20:36;;;;;;;15.68;11.15;;;;;;;;;;4993608;28;20456;-48
2021/11/23 03:23:02;;;;;;;16.20;11.60;;;;;;;;;;4993713;28;20231;-49
2021/11/23 03:25:28;;;;;;;20.27;13.30;;;;;;;;;;4993729;28;20178;-49
2021/11/23 03:27:55;;;;;;;20.13;11.23;;;;;;;;;;4993693;28;20172;-48
2021/11/23 03:30:24;;;;;;;15.98;10.77;;;;;;;;;;4993480;28;20420;-50
2021/11/23 03:32:50;;;;;;;21.60;12.25;;;;;;;;;;4993709;28;20179;-48
2021/11/23 03:35:16;;;;;;;24.90;11.20;;;;;;;;;;4993663;28;20173;-49
2021/11/23 03:37:43;;;;;;;14.30;10.50;;;;;;;;;;4993683;28;20211;-50
2021/11/23 03:40:09;;;;;;;18.83;11.48;;;;;;;;;;4993176;28;20190;-50
2021/11/23 03:42:35;;;;;;;21.00;13.18;;;;;;;;;;4993465;28;20169;-49
2021/11/23 03:45:01;;;;;;;16.83;11.73;;;;;;;;;;4993569;28;20197;-49
2021/11/23 03:47:29;;;;;;;16.42;11.38;;;;;;;;;;4993447;28;20408;-49
2021/11/23 03:49:55;;;;;;;16.15;11.30;;;;;;;;;;4993136;28;20223;-49
2021/11/23 03:52:21;;;;;;;21.63;12.02;;;;;;;;;;4993808;28;20165;-49
2021/11/23 03:54:47;;;;;;;20.00;11.93;;;;;;;;;;4993184;28;20223;-49
2021/11/23 03:57:13;;;;;;;19.10;11.80;;;;;;;;;;4993170;28;20923;-50
2021/11/23 03:59:39;;;;;;;17.40;11.97;;;;;;;;;;4992912;28;20464;-48
2021/11/23 04:02:05;;;;;;;16.92;12.20;;;;;;;;;;4993187;28;20959;-50
2021/11/23 04:04:32;;;;;;;21.03;12.37;;;;;;;;;;4993012;28;20265;-49
2021/11/23 04:06:58;;;;;;;20.02;13.57;;;;;;;;;;4993099;28;20813;-49
2021/11/23 04:09:24;;;;;;;18.30;12.30;;;;;;;;;;4992726;28;20185;-50
2021/11/23 04:11:50;;;;;;;21.33;12.80;;;;;;;;;;4992947;28;20396;-51
2021/11/23 04:14:16;;;;;;;20.95;12.68;;;;;;;;;;4992927;28;20223;-49
2021/11/23 04:16:42;;;;;;;19.50;13.40;;;;;;;;;;4992975;28;20617;-49
2021/11/23 04:19:08;;;;;;;21.00;13.05;;;;;;;;;;4992509;28;20279;-50
2021/11/23 04:21:34;;;;;;;22.10;13.80;;;;;;;;;;4992724;28;20316;-50
2021/11/23 04:24:00;;;;;;;24.47;13.93;;;;;;;;;;4992623;28;20411;-50
2021/11/23 04:26:26;;;;;;;21.57;14.00;;;;;;;;;;4992828;28;20490;-50
2021/11/23 04:28:52;;;;;;;20.00;13.03;;;;;;;;;;4992415;28;20436;-49
2021/11/23 04:31:18;;;;;;;33.23;13.53;;;;;;;;;;4992663;28;20814;-49
2021/11/23 04:33:44;;;;;;;21.10;13.47;;;;;;;;;;4992647;28;20435;-50
2021/11/23 04:36:10;;;;;;;21.97;13.83;;;;;;;;;;4992645;28;20396;-50
2021/11/23 04:38:36;;;;;;;20.25;12.43;;;;;;;;;;4992224;28;20455;-50
2021/11/23 04:41:02;;;;;;;24.07;14.23;;;;;;;;;;4992476;28;20551;-49
2021/11/23 04:43:28;;;;;;;17.98;12.60;;;;;;;;;;4992502;28;20392;-50
2021/11/23 04:45:56;;;;;;;22.57;14.57;;;;;;;;;;4992696;28;20169;-49
2021/11/23 04:48:22;;;;;;;19.10;11.70;;;;;;;;;;4992438;28;20418;-48
2021/11/23 04:50:48;;;;;;;19.33;12.82;;;;;;;;;;4992794;28;20197;-48
2021/11/23 04:53:14;;;;;;;18.47;12.73;;;;;;;;;;4992236;28;20183;-50
2021/11/23 04:55:40;;;;;;;18.83;12.93;;;;;;;;;;4992694;28;20610;-51
2021/11/23 04:58:06;;;;;;;21.83;13.90;;;;;;;;;;4992362;28;20552;-49
2021/11/23 05:00:31;;;;;;;17.60;13.65;;;;;;;;;;4974750;28;20468;-49
2021/11/23 05:02:58;;;;;;;20.40;12.27;;;;;;;;;;4992292;28;20172;-50
2021/11/23 05:05:25;;;;;;;21.20;14.55;;;;;;;;;;4992308;28;20780;-49
2021/11/23 05:07:51;;;;;;;23.23;13.45;;;;;;;;;;4992203;28;20172;-50
2021/11/23 05:10:17;;;;;;;22.90;14.50;;;;;;;;;;4992025;28;20192;-49
2021/11/23 05:12:43;;;;;;;21.90;14.67;;;;;;;;;;4992298;28;20196;-48
2021/11/23 05:15:10;;;;;;;24.50;14.27;;;;;;;;;;4992309;28;20411;-49
2021/11/23 05:17:36;;;;;;;19.08;13.43;;;;;;;;;;4992222;28;20169;-49
2021/11/23 05:20:03;;;;;;;20.40;12.57;;;;;;;;;;4992789;28;20199;-49
2021/11/23 05:22:29;;;;;;;19.60;13.13;;;;;;;;;;4995933;28;20211;-48
2021/11/23 05:24:56;;;;;;;23.33;16.00;;;;;;;;;;4996190;28;20776;-49
2021/11/23 05:27:22;;;;;;;23.95;13.65;;;;;;;;;;4996075;28;20423;-48
2021/11/23 05:29:48;;;;;;;20.03;13.87;;;;;;;;;;4995804;28;20669;-50
2021/11/23 05:32:13;;;;;;;28.57;16.40;;;;;;;;;;4996218;28;20470;-49
2021/11/23 05:34:39;;;;;;;21.60;14.20;;;;;;;;;;4996308;28;20404;-50
2021/11/23 05:37:05;;;;;;;21.57;13.77;;;;;;;;;;4995746;28;20415;-49
2021/11/23 05:39:32;;;;;;;23.10;14.55;;;;;;;;;;4995509;28;20491;-49
2021/11/23 05:41:57;;;;;;;22.20;14.90;;;;;;;;;;4995822;28;20285;-49
2021/11/23 05:44:23;;;;;;;24.03;14.40;;;;;;;;;;4995686;28;20169;-50
2021/11/23 05:46:49;;;;;;;22.87;15.43;;;;;;;;;;4995754;28;20880;-49
2021/11/23 05:49:17;;;;;;;20.93;14.53;;;;;;;;;;4995316;28;20424;-49
2021/11/23 05:51:43;;;;;;;21.05;14.60;;;;;;;;;;4995566;28;20404;-50
2021/11/23 05:54:09;;;;;;;25.70;15.20;;;;;;;;;;4995600;28;20254;-49
2021/11/23 05:56:35;;;;;;;27.03;16.83;;;;;;;;;;4995533;28;20646;-50
2021/11/23 05:59:01;;;;;;;23.52;15.73;;;;;;;;;;4995080;28;20513;-49
2021/11/23 06:01:27;;;;;;;23.53;15.37;;;;;;;;;;4995500;28;20252;-49
2021/11/23 06:03:53;;;;;;;29.03;15.47;;;;;;;;;;4995326;28;20392;-49
2021/11/23 06:06:19;;;;;;;30.00;15.50;;;;;;;;;;4995170;28;20397;-49
2021/11/23 06:08:45;;;;;;;26.05;17.23;;;;;;;;;;4995005;28;20416;-49
2021/11/23 06:11:11;;;;;;;26.83;16.23;;;;;;;;;;4995294;28;20536;-48
2021/11/23 06:13:37;;;;;;;30.83;17.80;;;;;;;;;;4995140;28;20397;-49
2021/11/23 06:16:05;;;;;;;30.38;17.13;;;;;;;;;;4995137;28;20401;-49
2021/11/23 06:18:31;;;;;;;28.80;17.33;;;;;;;;;;4994805;28;20649;-49
2021/11/23 06:20:57;;;;;;;35.78;16.45;;;;;;;;;;4994880;28;20279;-50
2021/11/23 06:23:24;;;;;;;29.27;18.17;;;;;;;;;;4994969;28;20256;-50
2021/11/23 06:25:50;;;;;;;29.42;16.45;;;;;;;;;;4995026;28;20396;-49
2021/11/23 06:28:17;;;;;;;24.55;15.55;;;;;;;;;;4994718;28;20191;-48
2021/11/23 06:30:44;;;;;;;30.95;18.58;;;;;;;;;;4994624;28;20196;-49
2021/11/23 06:33:10;;;;;;;26.38;15.75;;;;;;;;;;4993739;28;20168;-49
2021/11/23 06:35:37;;;;;;;25.83;16.13;;;;;;;;;;4994721;28;20596;-50
2021/11/23 06:38:04;;;;;;;26.63;16.02;;;;;;;;;;4994730;28;20169;-49
2021/11/23 06:40:30;;;;;;;29.92;17.08;;;;;;;;;;4994443;28;20204;-51
2021/11/23 06:42:56;;;;;;;26.97;17.50;;;;;;;;;;4994634;28;20542;-48
2021/11/23 06:45:22;;;;;;;26.83;16.50;;;;;;;;;;4994539;28;20438;-51
2021/11/23 06:47:50;;;;;;;28.00;16.47;;;;;;;;;;4994264;28;20408;-49
2021/11/23 06:50:16;;;;;;;22.92;15.50;;;;;;;;;;4987893;28;20519;-50
2021/11/23 06:52:42;;;;;;;30.67;17.23;;;;;;;;;;4992822;28;20339;-50
2021/11/23 06:55:08;;;;;;;25.60;16.77;;;;;;;;;;4992579;28;20680;-50
2021/11/23 06:57:34;;;;;;;24.30;16.25;;;;;;;;;;4992818;28;20408;-49
2021/11/23 07:00:00;;;;;;;29.00;17.27;;;;;;;;;;4993908;28;20272;-48
2021/11/23 07:02:26;;;;;;;29.48;16.38;;;;;;;;;;4994110;28;20563;-48
2021/11/23 07:04:52;;;;;;;30.43;18.20;;;;;;;;;;4994183;28;20688;-49
2021/11/23 07:07:18;;;;;;;30.47;17.03;;;;;;;;;;4994183;28;20404;-50
2021/11/23 07:09:44;;;;;;;26.98;17.00;;;;;;;;;;4993772;28;20424;-48
2021/11/23 07:12:11;;;;;;;30.10;17.58;;;;;;;;;;4994102;28;20170;-48
2021/11/23 07:14:40;;;;;;;34.05;17.48;;;;;;;;;;4994009;28;20204;-48
2021/11/23 07:17:07;;;;;;;28.08;17.90;;;;;;;;;;4976600;28;20185;-48
2021/11/23 07:19:33;;;;;;;35.15;17.85;;;;;;;;;;4993611;28;20280;-48
2021/11/23 07:21:59;;;;;;;31.25;17.60;;;;;;;;;;4993829;28;20205;-48
2021/11/23 07:24:25;;;;;;;36.80;17.90;;;;;;;;;;4993832;28;20595;-48
2021/11/23 07:26:51;;;;;;;32.53;18.97;;;;;;;;;;4993820;28;20404;-48
2021/11/23 07:29:16;;;;;;;31.10;17.75;;;;;;;;;;4993571;28;20427;-48
2021/11/23 07:31:43;;;;;;;30.10;18.87;;;;;;;;;;4993695;28;20260;-48
2021/11/23 07:34:09;;;;;;;37.42;19.42;;;;;;;;;;4993506;28;20772;-48
2021/11/23 07:36:36;;;;;;;34.88;19.85;;;;;;;;;;4993637;28;20582;-48
2021/11/23 07:39:02;;;;;;;36.60;19.52;;;;;;;;;;4993244;28;20243;-50
2021/11/23 07:41:29;;;;;;;33.70;19.60;;;;;;;;;;4993495;28;20177;-49
2021/11/23 07:43:56;;;;;;;34.80;20.67;;;;;;;;;;4993323;28;20169;-48
2021/11/23 07:46:22;;;;;;;36.03;20.73;;;;;;;;;;4993453;28;20614;-48
2021/11/23 07:48:48;;;;;;;39.95;21.05;;;;;;;;;;4993129;28;20192;-48
2021/11/23 07:51:14;;;;;;;40.83;21.63;;;;;;;;;;4993354;28;20633;-48
2021/11/23 07:53:40;;;;;;;34.85;20.20;;;;;;;;;;4993258;28;20165;-48
2021/11/23 07:56:06;;;;;;;38.28;21.63;;;;;;;;;;4993297;28;20196;-48
2021/11/23 07:58:33;;;;;;;39.47;22.48;;;;;;;;;;4993380;28;20244;-48
2021/11/23 08:00:59;;;;;;;38.88;21.83;;;;;;;;;;4993241;28;20675;-48
2021/11/23 08:03:25;;;;;;;45.00;21.33;;;;;;;;;;4993078;28;20193;-48
2021/11/23 08:05:52;;;;;;;38.92;21.83;;;;;;;;;;4993120;28;20629;-48
2021/11/23 08:08:18;;;;;;;43.35;23.05;;;;;;;;;;4993001;28;20169;-48
2021/11/23 08:10:44;;;;;;;42.30;24.50;;;;;;;;;;4992906;28;20189;-48
2021/11/23 08:13:10;;;;;;;39.78;23.02;;;;;;;;;;4992732;28;20411;-48
2021/11/23 08:15:36;;;;;;;42.50;23.85;;;;;;;;;;4992983;28;20173;-48
2021/11/23 08:18:06;;;;;;;53.33;24.58;;;;;;;;;;4992999;28;20502;-48
2021/11/23 08:20:32;;;;;;;51.58;23.98;;;;;;;;;;4992533;28;20214;-48
2021/11/23 08:22:58;;;;;;;45.27;23.70;;;;;;;;;;4992720;28;20189;-48
2021/11/23 08:25:24;;;;;;;52.80;22.83;;;;;;;;;;4992794;28;20404;-48
2021/11/23 08:27:51;;;;;;;48.43;24.40;;;;;;;;;;4992669;28;20404;-48
2021/11/23 08:30:17;;;;;;;41.75;22.90;;;;;;;;;;4992396;28;20463;-48
2021/11/23 08:32:43;;;;;;;42.28;22.63;;;;;;;;;;4992774;28;20169;-48
2021/11/23 08:35:10;;;;;;;55.58;24.90;;;;;;;;;;4992789;28;20191;-48
2021/11/23 08:37:36;;;;;;;45.40;26.15;;;;;;;;;;4992573;28;20185;-50
2021/11/23 08:40:03;;;;;;;41.58;23.65;;;;;;;;;;4992200;28;20193;-49
2021/11/23 08:42:29;;;;;;;42.58;24.95;;;;;;;;;;4992473;28;20169;-48
2021/11/23 08:44:55;;;;;;;44.40;23.55;;;;;;;;;;4992377;28;20522;-48
2021/11/23 08:47:22;;;;;;;51.13;23.10;;;;;;;;;;4992725;28;20256;-48
2021/11/23 08:49:49;;;;;;;49.88;24.20;;;;;;;;;;4992128;28;20507;-48
2021/11/23 08:52:16;;;;;;;45.75;24.90;;;;;;;;;;4992443;28;20172;-49
2021/11/23 08:54:42;;;;;;;54.67;24.83;;;;;;;;;;4991820;28;20521;-48
2021/11/23 08:57:10;;;;;;;40.35;23.98;;;;;;;;;;4992354;28;20193;-48
2021/11/23 08:59:43;;;;;;;46.65;24.92;;;;;;;;;;4992042;28;20204;-48
2021/11/23 09:02:11;;;;;;;49.47;23.48;;;;;;;;;;4992414;28;20510;-48
2021/11/23 09:04:37;;;;;;;44.08;23.00;;;;;;;;;;4985687;28;20177;-47
2021/11/23 09:07:06;;;;;;;48.80;25.13;;;;;;;;;;4992262;28;20181;-48
2021/11/23 09:09:33;;;;;;;44.35;25.25;;;;;;;;;;4991894;28;20431;-48
2021/11/23 09:12:02;;;;;;;47.00;25.38;;;;;;;;;;4992351;28;20256;-48
2021/11/23 09:14:35;;;;;;;47.13;24.88;;;;;;;;;;4992207;28;20640;-50
2021/11/23 09:17:01;;;;;;;49.75;24.02;;;;;;;;;;4992299;28;20180;-48
2021/11/23 09:19:27;;;;;;;44.22;23.30;;;;;;;;;;4991845;28;20668;-48
2021/11/23 09:21:54;;;;;;;45.78;24.45;;;;;;;;;;4992129;28;20239;-48
2021/11/23 09:24:21;;;;;;;38.65;23.05;;;;;;;;;;4991985;28;20248;-48
2021/11/23 09:26:47;;;;;;;50.20;25.25;;;;;;;;;;4992165;28;20715;-47
2021/11/23 09:29:14;;;;;;;37.47;22.38;;;;;;;;;;4991883;28;20236;-49
2021/11/23 09:31:40;;;;;;;40.22;21.23;;;;;;;;;;4992110;28;20232;-48
2021/11/23 09:34:06;;;;;;;44.05;22.80;;;;;;;;;;4992132;28;20176;-48
2021/11/23 09:36:32;;;;;;;45.30;24.97;;;;;;;;;;4992139;28;20532;-49
2021/11/23 09:38:59;;;;;;;53.80;24.02;;;;;;;;;;4991659;28;20424;-48
2021/11/23 09:41:25;;;;;;;41.70;25.45;;;;;;;;;;4991922;28;20161;-48
2021/11/23 09:43:51;;;;;;;39.42;22.65;;;;;;;;;;4991983;28;20208;-48
2021/11/23 09:46:17;;;;;;;45.70;22.30;;;;;;;;;;4992042;28;20169;-48
2021/11/23 09:48:45;;;;;;;48.20;24.70;;;;;;;;;;4991495;28;20896;-48
2021/11/23 09:51:12;;;;;;;38.88;22.83;;;;;;;;;;4990702;28;20236;-49
2021/11/23 09:53:38;;;;;;;38.75;23.17;;;;;;;;;;4991766;28;20693;-48
2021/11/23 09:56:04;;;;;;;39.83;22.47;;;;;;;;;;4992113;28;20252;-48
2021/11/23 09:58:30;;;;;;;41.92;23.35;;;;;;;;;;4991513;28;20404;-48
2021/11/23 10:01:01;;;;;;;53.40;26.83;;;;;;;;;;4991730;28;20232;-48
2021/11/23 10:03:30;;;;;;;40.85;23.85;;;;;;;;;;4991661;28;20260;-48
2021/11/23 10:06:08;;;;;;;44.28;24.35;;;;;;;;;;4992208;28;20208;-50
2021/11/23 10:08:34;;;;;;;46.78;24.85;;;;;;;;;;4994905;28;20676;-51
2021/11/23 10:11:00;;;;;;;47.78;24.77;;;;;;;;;;4995188;28;20201;-48
2021/11/23 10:13:41;;;;;;;47.83;24.40;;;;;;;;;;4995042;28;20173;-48
2021/11/23 10:16:08;;;;;;;40.13;25.15;;;;;;;;;;4994946;28;20400;-48
2021/11/23 10:18:34;;;;;;;47.45;23.75;;;;;;;;;;4995054;28;20637;-47
2021/11/23 10:21:01;;;;;;;43.85;23.92;;;;;;;;;;4994902;28;20192;-48
2021/11/23 10:23:47;;;;;;;41.78;22.27;;;;;;;;;;4994491;28;20173;-49
2021/11/23 10:26:27;;;;;;;38.67;20.90;;;;;;;;;;4994053;28;20226;-48
2021/11/23 10:29:01;;;;;;;36.75;22.00;;;;;;;;;;4994531;28;20184;-48
2021/11/23 10:31:31;;;;;;;36.72;21.98;;;;;;;;;;4994524;28;20173;-48
2021/11/23 10:34:02;;;;;;;37.72;21.77;;;;;;;;;;4994772;28;20630;-48
2021/11/23 10:36:29;;;;;;;36.65;21.05;;;;;;;;;;4994596;28;20260;-48
2021/11/23 10:39:02;;;;;;;39.60;21.80;;;;;;;;;;4994319;28;20239;-49
2021/11/23 10:41:28;;;;;;;36.28;21.35;;;;;;;;;;4994638;28;20183;-50
2021/11/23 10:43:54;;;;;;;33.87;21.03;;;;;;;;;;4994545;28;20169;-48
2021/11/23 10:46:22;;;;;;;40.83;21.80;;;;;;;;;;4994668;28;20487;-48
2021/11/23 10:48:55;;;;;;;39.70;22.00;;;;;;;;;;4994244;28;20191;-48
2021/11/23 10:51:22;;;;;;;39.30;22.13;;;;;;;;;;4994468;28;20232;-48
2021/11/23 10:53:48;;;;;;;32.53;20.50;;;;;;;;;;4994194;28;20429;-48
2021/11/23 10:56:16;;;;;;;38.23;19.97;;;;;;;;;;4994389;28;20197;-48
2021/11/23 10:58:43;;;;;;;39.83;20.50;;;;;;;;;;4994046;28;20541;-50
2021/11/23 11:01:10;;;;;;;35.28;21.00;;;;;;;;;;4976729;28;20711;-48
2021/11/23 11:03:37;;;;;;;40.10;21.10;;;;;;;;;;4994191;28;20180;-48
2021/11/23 11:06:03;;;;;;;42.75;21.02;;;;;;;;;;4994374;28;20450;-48
2021/11/23 11:08:34;;;;;;;32.08;20.10;;;;;;;;;;4993541;28;20193;-47
2021/11/23 11:11:00;;;;;;;33.60;19.65;;;;;;;;;;4993679;28;20169;-48
2021/11/23 11:13:27;;;;;;;38.85;20.33;;;;;;;;;;4992712;28;20495;-48
2021/11/23 11:15:54;;;;;;;33.00;19.73;;;;;;;;;;4990871;28;20211;-48
2021/11/23 11:18:22;;;;;;;40.57;20.90;;;;;;;;;;4991857;28;20776;-48
2021/11/23 11:21:06;;;;;;;40.27;22.30;;;;;;;;;;4993461;28;20883;-48
2021/11/23 11:23:33;;;;;;;36.57;20.30;;;;;;;;;;4994028;28;20396;-50
2021/11/23 11:26:11;;;;;;;35.63;20.37;;;;;;;;;;4993908;28;20393;-48
2021/11/23 11:28:39;;;;;;;43.30;20.77;;;;;;;;;;4994367;28;20422;-47
2021/11/23 11:31:07;;;;;;;36.30;21.20;;;;;;;;;;4993000;28;20215;-50
2021/11/23 11:33:34;;;;;;;36.70;20.93;;;;;;;;;;4992465;28;20196;-48
2021/11/23 11:36:01;;;;;;;33.90;20.17;;;;;;;;;;4993782;28;20524;-48
2021/11/23 11:38:37;;;;;;;41.20;21.95;;;;;;;;;;4993355;28;20435;-48
2021/11/23 11:41:08;;;;;;;34.63;22.48;;;;;;;;;;4993505;28;20203;-48
2021/11/23 11:43:35;;;;;;;35.72;19.77;;;;;;;;;;4993319;28;20641;-51
2021/11/23 11:46:02;;;;;;;39.10;20.30;;;;;;;;;;4993866;28;20173;-49
2021/11/23 11:48:32;;;;;;;35.65;21.05;;;;;;;;;;4993179;28;20431;-48
2021/11/23 11:51:04;;;;;;;31.27;19.27;;;;;;;;;;4993372;28;20172;-48
2021/11/23 11:53:31;;;;;;;39.73;20.33;;;;;;;;;;4993278;28;20408;-50
2021/11/23 11:55:57;;;;;;;36.00;20.30;;;;;;;;;;4993277;28;20396;-48
2021/11/23 11:58:47;;;;;;;39.10;19.27;;;;;;;;;;4993248;28;20903;-48
2021/11/23 12:01:28;;;;;;;39.27;20.30;;;;;;;;;;4992962;28;20491;-48
2021/11/23 12:04:05;;;;;;;38.00;22.43;;;;;;;;;;4993068;28;20805;-48
2021/11/23 12:06:50;;;;;;;45.40;23.30;;;;;;;;;;4993032;28;20453;-49
2021/11/23 12:09:25;;;;;;;37.77;21.37;;;;;;;;;;4992765;28;20810;-48
2021/11/23 12:11:52;;;;;;;37.03;21.03;;;;;;;;;;4992998;28;20405;-48
2021/11/23 12:14:19;;;;;;;40.00;20.33;;;;;;;;;;4992846;28;20397;-48
2021/11/23 12:16:53;;;;;;;43.07;21.80;;;;;;;;;;4992874;28;20413;-48
2021/11/23 12:19:39;;;;;;;36.90;21.50;;;;;;;;;;4992480;28;20493;-48
2021/11/23 12:22:05;;;;;;;35.13;19.70;;;;;;;;;;4993039;28;20428;-47
2021/11/23 12:24:37;;;;;;;39.67;19.40;;;;;;;;;;4992826;28;20881;-48
2021/11/23 12:27:08;;;;;;;37.33;21.77;;;;;;;;;;4992741;28;20495;-48
2021/11/23 12:29:34;;;;;;;37.13;21.47;;;;;;;;;;4991429;28;20429;-48
2021/11/23 12:32:00;;;;;;;41.20;21.53;;;;;;;;;;4992652;28;20407;-48
2021/11/23 12:34:26;;;;;;;47.87;22.10;;;;;;;;;;4992622;28;20409;-48
2021/11/23 12:36:54;;;;;;;41.20;22.80;;;;;;;;;;4992625;28;20414;-48
2021/11/23 12:39:24;;;;;;;42.80;21.90;;;;;;;;;;4992571;28;20960;-49
2021/11/23 12:41:57;;;;;;;45.30;21.77;;;;;;;;;;4992518;28;20766;-49
2021/11/23 12:44:25;;;;;;;45.73;22.10;;;;;;;;;;4992429;28;20492;-48
2021/11/23 12:46:55;;;;;;;46.73;20.87;;;;;;;;;;4992372;28;20411;-47
2021/11/23 12:49:22;;;;;;;47.23;23.57;;;;;;;;;;4992561;28;20503;-48
2021/11/23 12:52:00;;;;;;;57.47;25.90;;;;;;;;;;4992467;28;20412;-49
2021/11/23 12:54:26;;;;;;;43.30;23.50;;;;;;;;;;4992401;28;20896;-49
2021/11/23 12:57:04;;;;;;;44.07;23.70;;;;;;;;;;4992307;28;20411;-49
2021/11/23 12:59:30;;;;;;;43.10;24.30;;;;;;;;;;4993447;28;20469;-52
2021/11/23 13:01:56;;;;;;;45.27;23.10;;;;;;;;;;4992966;28;20408;-51
2021/11/23 13:04:36;;;;;;;42.27;23.57;;;;;;;;;;4993395;28;20409;-52
2021/11/23 13:07:05;;;;;;;49.07;25.20;;;;;;;;;;4993129;28;20795;-51
2021/11/23 13:09:50;;;;;;;48.60;24.03;;;;;;;;;;4992743;28;20794;-52
2021/11/23 13:12:17;;;;;;;40.87;21.50;;;;;;;;;;4992899;28;20408;-50
2021/11/23 13:15:13;;;;;;;41.77;22.53;;;;;;;;;;4992856;28;20400;-50
2021/11/23 13:17:39;;;;;;;47.80;22.43;;;;;;;;;;4976409;28;20838;-52
2021/11/23 13:20:10;;;;;;;47.63;21.60;;;;;;;;;;4992664;28;20460;-51
2021/11/23 13:22:37;;;;;;;45.23;22.37;;;;;;;;;;4993098;28;20963;-52
2021/11/23 13:25:04;;;;;;;49.43;23.80;;;;;;;;;;4992811;28;20467;-51
2021/11/23 13:27:31;;;;;;;56.83;22.47;;;;;;;;;;4992958;28;20402;-52
2021/11/23 13:30:00;;;;;;;48.20;22.93;;;;;;;;;;4992307;28;20440;-50
2021/11/23 13:32:26;;;;;;;49.67;24.07;;;;;;;;;;4992688;28;20424;-52
2021/11/23 13:35:05;;;;;;;49.13;24.40;;;;;;;;;;4992613;28;20415;-51
2021/11/23 13:37:38;;;;;;;55.00;24.23;;;;;;;;;;4992758;28;20415;-50
2021/11/23 13:40:23;;;;;;;44.80;21.63;;;;;;;;;;4992368;28;20550;-52
2021/11/23 13:42:49;;;;;;;51.67;23.27;;;;;;;;;;4996134;28;20885;-51
2021/11/23 13:45:21;;;;;;;54.57;25.17;;;;;;;;;;4996355;28;20821;-51
2021/11/23 13:47:50;;;;;;;58.40;24.93;;;;;;;;;;4995732;28;20448;-52
2021/11/23 13:50:17;;;;;;;61.53;26.00;;;;;;;;;;4996947;28;20429;-50
2021/11/23 13:52:44;;;;;;;54.37;26.20;;;;;;;;;;4997891;28;20428;-51
2021/11/23 13:55:12;;;;;;;52.10;23.53;;;;;;;;;;4997802;28;20473;-50
2021/11/23 13:57:41;;;;;;;56.47;25.50;;;;;;;;;;4998466;28;20437;-50
2021/11/23 14:00:07;;;;;;;59.50;24.63;;;;;;;;;;4997760;28;20847;-52
2021/11/23 14:02:45;;;;;;;50.10;22.67;;;;;;;;;;4998519;28;20439;-51
2021/11/23 14:05:12;;;;;;;54.53;23.70;;;;;;;;;;4999072;28;20463;-50
2021/11/23 14:07:51;;;;;;;47.53;21.93;;;;;;;;;;4999198;28;20444;-51
2021/11/23 14:10:31;;;;;;;50.20;23.73;;;;;;;;;;4998193;28;20427;-51
2021/11/23 14:13:01;;;;;;;59.83;24.30;;;;;;;;;;4998415;28;20443;-52
2021/11/23 14:15:28;;;;;;;49.73;22.80;;;;;;;;;;4998505;28;20499;-50
2021/11/23 14:18:02;;;;;;;52.13;22.17;;;;;;;;;;4998693;28;20408;-49
2021/11/23 14:20:32;;;;;;;51.97;23.47;;;;;;;;;;4998736;28;20573;-51
2021/11/23 14:23:07;;;;;;;57.23;23.20;;;;;;;;;;4998506;28;20428;-50